Time;durP1;ratioP1;P1;durP2;ratioP2;P2;SDS_P1;SDS_P2;PMS_P1;PMS_P2;Temp;Humidity;BMP_temperature;BMP_pressure;BME280_temperature;BME280_humidity;BME280_pressure;Samples;Min_cycle;Max_cycle;Signal;HPM_P1;HPM_P2
2022/11/24 00:01:18;;;;;;;10.57;9.87;;;;;;;6.08;100.00;91779.38;5060684;28;20272;-70
2022/11/24 00:03:45;;;;;;;11.73;10.87;;;;;;;6.10;100.00;91787.69;5063600;28;20182;-70
2022/11/24 00:06:13;;;;;;;11.87;10.87;;;;;;;6.03;100.00;91777.63;5053125;28;20218;-70
2022/11/24 00:08:41;;;;;;;11.77;10.20;;;;;;;5.97;100.00;91783.09;5052627;28;20220;-69
2022/11/24 00:11:12;;;;;;;12.00;11.40;;;;;;;6.10;100.00;91792.84;5064017;28;20233;-69
2022/11/24 00:13:38;;;;;;;12.83;12.03;;;;;;;6.08;100.00;91785.34;5065099;28;20861;-70
2022/11/24 00:16:09;;;;;;;11.73;10.93;;;;;;;5.99;100.00;91781.78;5051583;28;20222;-69
2022/11/24 00:18:35;;;;;;;11.47;10.67;;;;;;;5.85;100.00;91780.84;5064758;28;20177;-70
2022/11/24 00:21:00;;;;;;;11.70;10.83;;;;;;;5.78;100.00;91787.34;5068118;28;20289;-69
2022/11/24 00:23:26;;;;;;;11.43;10.67;;;;;;;5.90;100.00;91793.75;5056633;28;20178;-69
2022/11/24 00:25:51;;;;;;;11.93;11.23;;;;;;;5.82;100.00;91793.56;5054945;28;20252;-70
2022/11/24 00:28:17;;;;;;;12.10;11.10;;;;;;;5.81;100.00;91789.38;5052328;28;20189;-69
2022/11/24 00:30:42;;;;;;;12.43;11.53;;;;;;;5.90;100.00;91793.00;5050899;28;20795;-70
2022/11/24 00:33:07;;;;;;;12.40;11.50;;;;;;;5.68;100.00;91764.88;5052899;28;20232;-69
2022/11/24 00:35:33;;;;;;;11.87;11.07;;;;;;;5.75;100.00;91774.94;5051247;28;20228;-69
2022/11/24 00:37:58;;;;;;;12.77;11.77;;;;;;;5.81;100.00;91794.56;5059775;28;20213;-69
2022/11/24 00:40:23;;;;;;;13.53;12.43;;;;;;;5.54;100.00;91807.19;5051434;28;20210;-69
2022/11/24 00:42:49;;;;;;;11.50;10.53;;;;;;;5.72;100.00;91816.91;5034397;28;20218;-70
2022/11/24 00:45:14;;;;;;;12.33;11.53;;;;;;;5.72;100.00;91811.72;5056508;28;20249;-70
2022/11/24 00:47:39;;;;;;;12.40;11.40;;;;;;;5.81;100.00;91812.69;5057895;28;20683;-70
2022/11/24 00:50:05;;;;;;;11.67;10.80;;;;;;;5.93;100.00;91802.81;5032644;28;20280;-69
2022/11/24 00:52:31;;;;;;;12.43;11.37;;;;;;;5.90;100.00;91798.19;5051578;28;20182;-70
2022/11/24 00:54:56;;;;;;;11.73;11.13;;;;;;;5.99;100.00;91805.09;5063247;28;20225;-69
2022/11/24 00:57:22;;;;;;;10.53;9.73;;;;;;;5.94;100.00;91802.56;5051851;28;20208;-68
2022/11/24 00:59:47;;;;;;;12.03;11.03;;;;;;;5.95;100.00;91792.94;5045304;28;20182;-69
2022/11/24 01:02:12;;;;;;;11.70;11.00;;;;;;;6.01;100.00;91802.22;5034384;28;20190;-68
2022/11/24 01:04:38;;;;;;;12.40;11.57;;;;;;;5.96;100.00;91804.88;5051084;28;20250;-69
2022/11/24 01:07:04;;;;;;;13.63;12.57;;;;;;;6.07;100.00;91809.69;5051250;28;20214;-69
2022/11/24 01:09:29;;;;;;;12.60;11.53;;;;;;;5.94;100.00;91809.53;5059609;28;20200;-69
2022/11/24 01:12:00;;;;;;;11.13;10.43;;;;;;;5.98;100.00;91805.34;5054837;28;20222;-70
2022/11/24 01:14:27;;;;;;;10.80;10.10;;;;;;;5.80;100.00;91803.38;5051645;28;20179;-70
2022/11/24 01:16:53;;;;;;;14.10;10.10;;;;;;;5.83;100.00;91810.66;5051550;28;20213;-70
2022/11/24 01:19:18;;;;;;;10.80;10.17;;;;;;;5.81;100.00;91810.09;5061768;28;20190;-69
2022/11/24 01:21:44;;;;;;;9.80;9.17;;;;;;;5.67;100.00;91812.53;5054108;28;20290;-68
2022/11/24 01:24:10;;;;;;;9.93;9.40;;;;;;;5.72;100.00;91812.50;5070433;28;20204;-70
2022/11/24 01:26:35;;;;;;;11.40;10.80;;;;;;;5.80;100.00;91803.38;5066086;28;21235;-70
2022/11/24 01:29:01;;;;;;;11.20;10.50;;;;;;;5.44;100.00;91747.69;5051519;28;20198;-69
2022/11/24 01:31:26;;;;;;;11.17;10.27;;;;;;;5.84;100.00;91804.41;5064797;28;20268;-69
2022/11/24 01:33:52;;;;;;;17.20;15.77;;;;;;;5.74;100.00;91799.28;5060943;28;20171;-69
2022/11/24 01:36:18;;;;;;;12.07;11.27;;;;;;;5.86;100.00;91795.34;5052011;28;20230;-69
2022/11/24 01:38:44;;;;;;;13.13;12.03;;;;;;;5.83;100.00;91798.47;5051188;28;20194;-70
2022/11/24 01:41:15;;;;;;;16.47;15.27;;;;;;;5.91;100.00;91797.91;5051276;28;20289;-70
2022/11/24 01:43:43;;;;;;;12.60;11.60;;;;;;;5.94;100.00;91794.78;5061224;28;20210;-70
2022/11/24 01:46:20;;;;;;;11.87;10.90;;;;;;;5.86;100.00;91804.94;5044930;28;20252;-69
2022/11/24 01:48:51;;;;;;;12.33;11.60;;;;;;;5.83;100.00;91784.75;5059400;28;20185;-70
2022/11/24 01:51:22;;;;;;;13.47;12.47;;;;;;;5.86;100.00;91797.94;5045056;28;20214;-69
2022/11/24 01:53:53;;;;;;;13.10;12.10;;;;;;;5.88;100.00;91815.81;5050911;28;20209;-69
2022/11/24 01:56:19;;;;;;;11.87;11.00;;;;;;;5.84;100.00;91804.41;5063084;28;20235;-69
2022/11/24 01:58:46;;;;;;;12.57;11.87;;;;;;;5.80;100.00;91798.22;5068866;28;20193;-69
2022/11/24 02:01:12;;;;;;;13.10;12.00;;;;;;;5.78;100.00;91795.88;5067962;28;20220;-70
2022/11/24 02:03:41;;;;;;;11.20;10.70;;;;;;;5.94;100.00;91794.78;5056405;28;20186;-69
2022/11/24 02:06:15;;;;;;;11.03;10.43;;;;;;;6.01;100.00;91802.22;5049554;28;20225;-70
2022/11/24 02:08:51;;;;;;;11.50;10.80;;;;;;;6.00;100.00;91798.09;5054240;28;20193;-69
2022/11/24 02:11:19;;;;;;;17.40;15.67;;;;;;;5.95;100.00;91795.53;5062412;28;20217;-69
2022/11/24 02:13:47;;;;;;;18.37;16.57;;;;;;;5.99;100.00;91781.03;5052857;28;20190;-69
2022/11/24 02:16:12;;;;;;;15.40;12.97;;;;;;;5.98;100.00;91800.19;5049676;28;20234;-69
2022/11/24 02:18:39;;;;;;;11.47;10.77;;;;;;;5.94;100.00;91805.16;5050420;28;20182;-69
2022/11/24 02:21:05;;;;;;;9.97;9.37;;;;;;;5.99;100.00;91802.50;5057870;28;20268;-70
2022/11/24 02:23:37;;;;;;;10.83;10.13;;;;;;;5.95;100.00;91801.50;5065778;28;20189;-70
2022/11/24 02:26:02;;;;;;;11.43;10.67;;;;;;;6.01;100.00;91804.81;5067821;28;20225;-70
2022/11/24 02:28:29;;;;;;;12.00;11.27;;;;;;;6.07;100.00;91807.09;5037562;28;20216;-70
2022/11/24 02:30:57;;;;;;;11.80;11.20;;;;;;;6.10;100.00;91803.22;5060442;28;20221;-69
2022/11/24 02:33:24;;;;;;;11.73;10.93;;;;;;;6.21;100.00;91812.47;5050549;28;20296;-70
2022/11/24 02:35:50;;;;;;;14.47;13.17;;;;;;;6.23;100.00;91802.56;5049483;28;20234;-70
2022/11/24 02:38:15;;;;;;;24.97;18.73;;;;;;;6.24;100.00;91804.91;5049620;28;20197;-69
2022/11/24 02:40:46;;;;;;;29.83;20.67;;;;;;;6.23;100.00;91807.75;5042451;28;20240;-70
2022/11/24 02:43:16;;;;;;;19.53;14.90;;;;;;;6.18;100.00;91807.78;5063035;28;20817;-69
2022/11/24 02:45:41;;;;;;;12.90;11.80;;;;;;;6.11;100.00;91805.53;5055268;28;20225;-70
2022/11/24 02:48:07;;;;;;;14.60;13.23;;;;;;;5.96;100.00;91807.47;5049325;28;20700;-69
2022/11/24 02:50:32;;;;;;;18.87;15.40;;;;;;;6.05;100.00;91813.59;5061297;28;20225;-69
2022/11/24 02:52:58;;;;;;;13.17;12.17;;;;;;;5.93;100.00;91808.75;5050011;28;20174;-70
2022/11/24 02:55:23;;;;;;;11.73;10.93;;;;;;;5.94;100.00;91807.75;5055741;28;20213;-70
2022/11/24 02:57:49;;;;;;;11.73;10.97;;;;;;;5.88;100.00;91815.81;5055702;28;20200;-70
2022/11/24 03:00:15;;;;;;;12.87;11.80;;;;;;;5.88;100.00;91808.03;5061894;28;20662;-69
2022/11/24 03:02:40;;;;;;;12.23;11.33;;;;;;;5.88;100.00;91810.63;5055536;28;20224;-70
2022/11/24 03:05:06;;;;;;;11.13;10.27;;;;;;;5.85;100.00;91791.19;5056169;28;20289;-70
2022/11/24 03:07:32;;;;;;;12.20;11.43;;;;;;;5.86;100.00;91803.13;5049533;28;20212;-70
2022/11/24 03:09:57;;;;;;;10.33;9.73;;;;;;;5.93;100.00;91810.59;5037339;28;20237;-70
2022/11/24 03:12:22;;;;;;;11.17;10.57;;;;;;;6.00;100.00;91804.06;5052205;28;20178;-70
2022/11/24 03:14:48;;;;;;;12.53;11.53;;;;;;;5.89;100.00;91801.81;5051291;28;20198;-70
2022/11/24 03:17:13;;;;;;;12.67;11.57;;;;;;;6.08;100.00;91816.44;5050402;28;20181;-69
2022/11/24 03:19:38;;;;;;;12.53;11.23;;;;;;;5.99;100.00;91814.69;5049239;28;20194;-70
2022/11/24 03:22:04;;;;;;;10.63;10.10;;;;;;;6.07;100.00;91821.91;5053651;28;20182;-70
2022/11/24 03:24:29;;;;;;;10.83;10.20;;;;;;;6.11;100.00;91822.88;5060584;28;20884;-70
2022/11/24 03:26:54;;;;;;;10.90;10.20;;;;;;;6.23;100.00;91823.31;5048489;28;20222;-69
2022/11/24 03:29:21;;;;;;;10.53;9.07;;;;;;;6.22;100.00;91819.97;5049413;28;20214;-70
2022/11/24 03:31:46;;;;;;;10.87;10.23;;;;;;;6.29;100.00;91830.00;5053154;28;20243;-70
2022/11/24 03:34:11;;;;;;;11.03;10.33;;;;;;;6.29;100.00;91833.38;5056736;28;20261;-69
2022/11/24 03:36:37;;;;;;;11.50;10.80;;;;;;;6.28;100.00;91826.66;5052889;28;20228;-69
2022/11/24 03:39:02;;;;;;;10.47;9.77;;;;;;;6.41;100.00;91835.63;5058108;28;20190;-69
2022/11/24 03:41:28;;;;;;;11.60;10.67;;;;;;;6.45;100.00;91841.81;5041367;28;20220;-70
2022/11/24 03:43:53;;;;;;;10.63;10.13;;;;;;;6.29;100.00;91804.09;5059805;28;20224;-70
2022/11/24 03:46:18;;;;;;;11.57;10.77;;;;;;;6.57;100.00;91844.81;5056087;28;20233;-70
2022/11/24 03:48:44;;;;;;;10.67;10.17;;;;;;;6.49;100.00;91845.38;5058495;28;20190;-69
2022/11/24 03:51:10;;;;;;;10.50;10.00;;;;;;;6.47;100.00;91855.28;5048278;28;20781;-69
2022/11/24 03:53:35;;;;;;;11.03;10.43;;;;;;;6.51;100.00;91864.03;5058784;28;20377;-70
2022/11/24 03:56:01;;;;;;;10.60;9.90;;;;;;;6.59;100.00;91863.47;5054511;28;20268;-69
2022/11/24 03:58:27;;;;;;;11.27;10.67;;;;;;;6.40;100.00;91857.38;5052506;28;20205;-70
2022/11/24 04:00:53;;;;;;;10.73;10.23;;;;;;;6.44;100.00;91869.53;5057128;28;20253;-70
2022/11/24 04:03:19;;;;;;;11.43;10.83;;;;;;;6.45;100.00;91868.50;5061870;28;20177;-70
2022/11/24 04:05:45;;;;;;;10.53;9.97;;;;;;;6.63;100.00;91874.81;5053406;28;20213;-70
2022/11/24 04:08:11;;;;;;;10.50;9.87;;;;;;;6.43;100.00;91857.63;5054909;28;20186;-69
2022/11/24 04:10:37;;;;;;;11.00;10.20;;;;;;;6.43;100.00;91869.81;5058732;28;20252;-70
2022/11/24 04:13:09;;;;;;;11.40;10.60;;;;;;;6.36;100.00;91866.75;5052742;28;20178;-69
2022/11/24 04:15:36;;;;;;;11.37;10.77;;;;;;;6.53;100.00;91872.34;5055125;28;20217;-70
2022/11/24 04:18:01;;;;;;;11.03;10.17;;;;;;;6.51;100.00;91870.00;5042805;28;20205;-69
2022/11/24 04:20:27;;;;;;;11.30;10.60;;;;;;;6.37;100.00;91860.53;5050651;28;20803;-70
2022/11/24 04:22:52;;;;;;;11.73;11.13;;;;;;;6.48;100.00;91877.56;5052396;28;20201;-70
2022/11/24 04:25:17;;;;;;;11.77;11.17;;;;;;;6.50;100.00;91880.66;5051624;28;20236;-69
2022/11/24 04:27:43;;;;;;;11.83;11.00;;;;;;;6.56;100.00;91889.94;5062815;28;20216;-70
2022/11/24 04:30:08;;;;;;;13.77;12.33;;;;;;;6.34;100.00;91898.13;5056392;28;20217;-69
2022/11/24 04:32:35;;;;;;;13.40;12.33;;;;;;;6.54;100.00;91907.56;5052617;28;20166;-70
2022/11/24 04:35:00;;;;;;;13.23;12.23;;;;;;;6.52;100.00;91901.91;5051525;28;20230;-69
2022/11/24 04:37:25;;;;;;;14.77;13.57;;;;;;;6.47;100.00;91901.94;5051879;28;20198;-69
2022/11/24 04:39:51;;;;;;;16.27;14.40;;;;;;;6.39;100.00;91910.28;5051076;28;20184;-70
2022/11/24 04:42:16;;;;;;;15.40;13.83;;;;;;;6.42;100.00;91894.97;5051593;28;20213;-69
2022/11/24 04:44:42;;;;;;;13.27;12.30;;;;;;;6.51;100.00;91902.94;5036894;28;20245;-69
2022/11/24 04:47:14;;;;;;;16.37;14.83;;;;;;;6.47;100.00;91897.50;5050258;28;20221;-69
2022/11/24 04:49:39;;;;;;;15.33;13.97;;;;;;;6.62;100.00;91907.00;5055522;28;20198;-71
2022/11/24 04:52:05;;;;;;;14.83;13.33;;;;;;;6.40;100.00;91881.50;5050315;28;20213;-69
2022/11/24 04:54:30;;;;;;;14.63;13.50;;;;;;;6.53;100.00;91908.63;5051087;28;20226;-70
2022/11/24 04:56:55;;;;;;;14.70;13.33;;;;;;;6.65;100.00;91909.06;5038211;28;20210;-71
2022/11/24 04:59:21;;;;;;;15.33;14.10;;;;;;;6.67;100.00;91914.75;5050706;28;20190;-70
2022/11/24 05:01:46;;;;;;;16.70;15.20;;;;;;;6.67;100.00;91906.19;5055691;28;20699;-71
2022/11/24 05:04:13;;;;;;;14.63;13.30;;;;;;;6.74;100.00;91915.19;5050339;28;20181;-67
2022/11/24 05:06:39;;;;;;;18.17;15.00;;;;;;;6.68;100.00;91898.13;5049663;28;20237;-68
2022/11/24 05:09:05;;;;;;;15.10;13.83;;;;;;;6.71;100.00;91915.75;5053770;28;20220;-69
2022/11/24 05:11:31;;;;;;;13.27;12.27;;;;;;;6.66;100.00;91913.22;5037769;28;20213;-68
2022/11/24 05:13:56;;;;;;;12.93;12.03;;;;;;;6.66;100.00;91913.22;5058152;28;20196;-72
2022/11/24 05:16:22;;;;;;;13.17;12.20;;;;;;;6.70;100.00;91901.25;5055190;28;20226;-72
2022/11/24 05:18:47;;;;;;;13.13;12.13;;;;;;;6.68;100.00;91921.47;5054508;28;20196;-71
2022/11/24 05:21:13;;;;;;;13.37;12.53;;;;;;;6.60;100.00;91916.88;5055123;28;20222;-70
2022/11/24 05:23:39;;;;;;;13.93;12.83;;;;;;;6.57;100.00;91925.19;5052641;28;20189;-70
2022/11/24 05:26:04;;;;;;;13.83;12.40;;;;;;;6.59;100.00;91925.69;5054890;28;20265;-67
2022/11/24 05:28:30;;;;;;;14.20;13.17;;;;;;;6.54;100.00;91917.94;5049958;28;20171;-70
2022/11/24 05:31:00;;;;;;;15.00;13.67;;;;;;;6.55;100.00;91929.88;5048668;28;20222;-70
2022/11/24 05:33:27;;;;;;;21.27;17.93;;;;;;;6.53;100.00;91927.56;5059469;28;20178;-71
2022/11/24 05:35:53;;;;;;;32.07;21.90;;;;;;;6.70;100.00;91932.34;5050004;28;20281;-67
2022/11/24 05:38:21;;;;;;;38.83;26.90;;;;;;;6.75;100.00;91934.91;5050923;28;20185;-67
2022/11/24 05:40:46;;;;;;;32.47;24.03;;;;;;;6.75;100.00;91937.50;5036048;28;20221;-63
2022/11/24 05:43:13;;;;;;;34.77;24.27;;;;;;;6.59;100.00;91938.66;5061324;28;20222;-64
2022/11/24 05:45:39;;;;;;;26.93;20.70;;;;;;;6.73;100.00;91941.41;5041074;28;20909;-64
2022/11/24 05:48:07;;;;;;;22.40;17.83;;;;;;;6.86;100.00;91946.75;5048778;28;20201;-64
2022/11/24 05:50:33;;;;;;;20.97;17.93;;;;;;;6.73;100.00;91952.56;5041887;28;20253;-64
2022/11/24 05:53:07;;;;;;;15.43;14.23;;;;;;;6.74;100.00;91948.91;5049259;28;20212;-64
2022/11/24 05:55:32;;;;;;;13.53;12.33;;;;;;;6.77;100.00;91943.19;5035965;28;20222;-64
2022/11/24 05:57:59;;;;;;;10.77;9.90;;;;;;;6.69;100.00;91954.16;5060524;28;20196;-67
2022/11/24 06:00:25;;;;;;;13.20;11.80;;;;;;;6.69;100.00;91946.38;5062375;28;20237;-67
2022/11/24 06:02:50;;;;;;;11.90;11.10;;;;;;;6.82;100.00;91950.19;5051024;28;20182;-67
2022/11/24 06:05:16;;;;;;;12.13;11.30;;;;;;;6.80;100.00;91947.84;5050383;28;20230;-66
2022/11/24 06:07:42;;;;;;;14.53;13.43;;;;;;;6.89;100.00;91956.59;5050818;28;20233;-66
2022/11/24 06:10:08;;;;;;;13.77;12.67;;;;;;;6.84;100.00;91942.88;5053842;28;20228;-67
2022/11/24 06:12:33;;;;;;;13.30;12.13;;;;;;;6.97;100.00;91958.63;5051151;28;20269;-68
2022/11/24 06:14:59;;;;;;;13.33;12.43;;;;;;;6.98;100.00;91960.16;5048883;28;20222;-66
2022/11/24 06:17:24;;;;;;;13.13;12.07;;;;;;;6.86;100.00;91946.75;5032860;28;20221;-67
2022/11/24 06:19:50;;;;;;;12.50;11.70;;;;;;;7.13;100.00;91962.59;5051804;28;20198;-66
2022/11/24 06:22:18;;;;;;;13.53;12.60;;;;;;;7.23;100.00;91962.53;5051499;28;20274;-66
2022/11/24 06:24:43;;;;;;;14.67;13.60;;;;;;;7.25;100.00;91968.22;5049920;28;20194;-69
2022/11/24 06:27:09;;;;;;;14.17;13.10;;;;;;;7.34;100.00;91969.19;5051415;28;20198;-66
2022/11/24 06:29:34;;;;;;;14.23;13.23;;;;;;;7.40;100.00;91978.47;5051650;28;20186;-66
2022/11/24 06:31:59;;;;;;;15.90;14.23;;;;;;;7.54;100.00;91979.38;5050090;28;20186;-67
2022/11/24 06:34:25;;;;;;;14.77;13.50;;;;;;;7.56;100.00;91982.47;5051299;28;20192;-66
2022/11/24 06:36:50;;;;;;;12.93;11.90;;;;;;;7.80;100.00;91982.47;5049412;28;20222;-66
2022/11/24 06:39:15;;;;;;;14.00;12.70;;;;;;;7.83;100.00;91984.50;5049847;28;20179;-65
2022/11/24 06:41:41;;;;;;;11.90;11.00;;;;;;;7.80;100.00;91988.44;5056175;28;20225;-64
2022/11/24 06:44:06;;;;;;;17.50;14.10;;;;;;;7.96;100.00;92000.22;5056516;28;20232;-65
2022/11/24 06:46:32;;;;;;;14.17;12.77;;;;;;;7.90;100.00;92003.94;5050593;28;20256;-65
2022/11/24 06:48:58;;;;;;;13.13;11.93;;;;;;;8.06;100.00;92012.34;5050208;28;20209;-67
2022/11/24 06:51:25;;;;;;;13.20;12.10;;;;;;;8.10;99.59;92013.31;5041843;28;20292;-64
2022/11/24 06:53:50;;;;;;;13.83;12.63;;;;;;;8.12;99.12;92022.38;5049805;28;20182;-67
2022/11/24 06:56:18;;;;;;;14.30;13.17;;;;;;;7.71;100.00;92030.88;5052993;28;20240;-66
2022/11/24 06:58:46;;;;;;;14.07;12.73;;;;;;;7.74;99.70;92027.75;5049986;28;20213;-70
2022/11/24 07:01:25;;;;;;;16.33;13.90;;;;;;;7.76;99.68;92023.84;5054447;28;20236;-66
2022/11/24 07:03:52;;;;;;;13.43;12.43;;;;;;;8.17;98.81;92031.97;5050074;28;20205;-66
2022/11/24 07:06:19;;;;;;;13.80;12.47;;;;;;;8.29;97.74;92036.78;5049004;28;20218;-65
2022/11/24 07:08:45;;;;;;;24.00;14.00;;;;;;;7.99;95.44;92038.66;5050249;28;20244;-66
2022/11/24 07:11:14;;;;;;;23.13;16.10;;;;;;;8.08;96.80;92044.78;5055843;28;20241;-68
2022/11/24 07:13:43;;;;;;;25.20;18.07;;;;;;;7.93;97.18;92039.75;5050253;28;21213;-68
2022/11/24 07:16:19;;;;;;;21.97;18.17;;;;;;;8.07;97.42;92056.25;5054882;28;20251;-69
2022/11/24 07:18:46;;;;;;;20.73;17.20;;;;;;;7.99;97.80;92059.44;5050844;28;20218;-69
2022/11/24 07:21:12;;;;;;;19.87;17.83;;;;;;;7.42;100.00;92059.47;5050744;28;20236;-69
2022/11/24 07:23:38;;;;;;;19.90;16.73;;;;;;;7.59;99.53;92059.84;5031729;28;20166;-69
2022/11/24 07:26:05;;;;;;;20.97;17.17;;;;;;;7.42;100.00;92062.06;5059494;28;20225;-69
2022/11/24 07:28:30;;;;;;;22.53;18.43;;;;;;;7.44;100.00;92067.75;5049701;28;20190;-68
2022/11/24 07:30:56;;;;;;;26.37;20.40;;;;;;;7.54;100.00;92059.88;5048626;28;20264;-68
2022/11/24 07:33:24;;;;;;;27.87;19.93;;;;;;;7.33;100.00;92058.47;5052141;28;20181;-69
2022/11/24 07:35:52;;;;;;;28.70;20.47;;;;;;;7.47;100.00;92080.19;5051900;28;20228;-68
2022/11/24 07:38:17;;;;;;;24.10;19.37;;;;;;;7.87;100.00;92086.84;5052473;28;20182;-69
2022/11/24 07:40:43;;;;;;;20.93;18.40;;;;;;;7.94;98.61;92069.88;5062693;28;20245;-69
2022/11/24 07:43:08;;;;;;;20.87;18.33;;;;;;;8.10;97.95;92081.69;5052277;28;20232;-68
2022/11/24 07:45:33;;;;;;;18.20;16.47;;;;;;;7.64;97.94;92077.97;5052242;28;20221;-69
2022/11/24 07:47:59;;;;;;;18.03;15.00;;;;;;;7.54;97.54;92015.72;5052745;28;20217;-69
2022/11/24 07:50:24;;;;;;;16.27;14.80;;;;;;;7.79;97.16;92069.25;5046114;28;20213;-68
2022/11/24 07:52:50;;;;;;;14.60;13.27;;;;;;;7.83;97.29;92088.44;5058953;28;20178;-69
2022/11/24 07:55:15;;;;;;;25.23;13.90;;;;;;;7.88;96.78;92098.78;5061329;28;20225;-68
2022/11/24 07:57:40;;;;;;;18.20;14.73;;;;;;;7.58;98.80;92102.44;5065344;28;20194;-68
2022/11/24 08:00:06;;;;;;;15.77;14.17;;;;;;;7.67;97.22;92100.03;5052279;28;20222;-68
2022/11/24 08:02:32;;;;;;;17.63;15.93;;;;;;;7.34;98.58;92099.00;5052827;28;20178;-69
2022/11/24 08:04:58;;;;;;;15.27;13.80;;;;;;;7.10;100.00;92103.31;5052627;28;20222;-69
2022/11/24 08:07:23;;;;;;;16.57;15.20;;;;;;;7.05;100.00;92116.31;5052347;28;20206;-69
2022/11/24 08:09:51;;;;;;;17.63;15.87;;;;;;;6.76;100.00;92112.06;5056322;28;20181;-69
2022/11/24 08:12:20;;;;;;;19.87;16.73;;;;;;;6.40;100.00;92125.19;5052608;28;20289;-68
2022/11/24 08:14:48;;;;;;;17.47;15.87;;;;;;;6.43;100.00;92118.69;5056504;28;20194;-69
2022/11/24 08:17:13;;;;;;;17.70;15.40;;;;;;;6.20;100.00;92129.63;5052769;28;20623;-69
2022/11/24 08:19:38;;;;;;;16.73;15.43;;;;;;;6.11;100.00;92124.22;5035108;28;20192;-68
2022/11/24 08:22:04;;;;;;;18.17;16.37;;;;;;;6.06;100.00;92139.00;5052746;28;20760;-68
2022/11/24 08:24:30;;;;;;;16.70;15.20;;;;;;;5.98;100.00;92137.72;5052548;28;20268;-68
2022/11/24 08:26:55;;;;;;;17.53;16.03;;;;;;;5.65;100.00;92121.94;5065144;28;20252;-68
2022/11/24 08:29:20;;;;;;;15.90;14.43;;;;;;;5.62;100.00;92143.94;5056961;28;20201;-69
2022/11/24 08:31:46;;;;;;;16.33;14.77;;;;;;;5.62;100.00;92153.53;5051592;28;20274;-69
2022/11/24 08:34:11;;;;;;;16.63;15.10;;;;;;;5.75;100.00;92147.81;5062539;28;20188;-68
2022/11/24 08:36:37;;;;;;;17.27;15.67;;;;;;;5.74;100.00;92156.63;5064961;28;20229;-69
2022/11/24 08:39:02;;;;;;;18.03;16.13;;;;;;;5.73;100.00;92149.88;5056015;28;20218;-67
2022/11/24 08:41:28;;;;;;;17.57;15.57;;;;;;;5.64;100.00;92164.38;5062636;28;20206;-69
2022/11/24 08:43:54;;;;;;;21.27;15.97;;;;;;;5.54;100.00;92167.00;5050960;28;21106;-68
2022/11/24 08:46:19;;;;;;;18.73;16.87;;;;;;;5.32;100.00;92162.06;5058684;28;20227;-69
2022/11/24 08:48:49;;;;;;;17.47;15.70;;;;;;;5.35;100.00;92171.09;5052335;28;20182;-69
2022/11/24 08:51:17;;;;;;;17.67;15.83;;;;;;;5.34;100.00;92178.09;5054468;28;20222;-68
2022/11/24 08:53:43;;;;;;;20.23;15.77;;;;;;;5.40;100.00;92171.13;5066569;28;20193;-69
2022/11/24 08:56:10;;;;;;;17.90;16.17;;;;;;;5.59;100.00;92183.28;5059399;28;20222;-69
2022/11/24 08:58:36;;;;;;;17.93;16.20;;;;;;;5.44;100.00;92182.50;5062894;28;20178;-68
2022/11/24 09:01:13;;;;;;;15.73;14.30;;;;;;;5.55;100.00;92181.47;5051297;28;20260;-68
2022/11/24 09:03:40;;;;;;;17.30;15.70;;;;;;;5.39;100.00;92179.91;5052057;28;20274;-67
2022/11/24 09:06:07;;;;;;;15.77;14.30;;;;;;;5.60;100.00;92181.50;5046356;28;20218;-69
2022/11/24 09:08:33;;;;;;;16.30;15.10;;;;;;;5.54;100.00;92183.28;5054650;28;20192;-69
2022/11/24 09:11:07;;;;;;;17.27;13.70;;;;;;;5.51;100.00;92177.88;5051154;28;20226;-68
2022/11/24 09:13:33;;;;;;;15.60;14.43;;;;;;;5.66;100.00;92185.63;5051203;28;20186;-69
2022/11/24 09:16:06;;;;;;;13.63;12.40;;;;;;;5.78;100.00;92173.97;5043099;28;20670;-64
2022/11/24 09:18:32;;;;;;;13.10;12.07;;;;;;;5.61;100.00;92183.03;5051328;28;20182;-64
2022/11/24 09:21:08;;;;;;;13.07;12.27;;;;;;;5.58;100.00;92186.13;5059265;28;20328;-69
2022/11/24 09:23:34;;;;;;;12.33;11.63;;;;;;;5.45;100.00;92173.72;5052898;28;20176;-68
2022/11/24 09:26:12;;;;;;;11.17;10.47;;;;;;;5.44;100.00;92174.75;5059990;28;20209;-66
2022/11/24 09:28:37;;;;;;;12.07;11.47;;;;;;;5.81;100.00;92167.50;5050950;28;20178;-65
2022/11/24 09:31:04;;;;;;;11.03;10.43;;;;;;;5.53;100.00;92155.84;5050870;28;20265;-65
2022/11/24 09:33:31;;;;;;;10.63;10.03;;;;;;;5.64;100.00;92172.94;5054196;28;20196;-67
2022/11/24 09:35:57;;;;;;;10.73;10.23;;;;;;;5.66;100.00;92168.28;5050508;28;20298;-66
2022/11/24 09:38:22;;;;;;;10.97;10.37;;;;;;;5.70;100.00;92165.94;5056580;28;20177;-67
2022/11/24 09:40:48;;;;;;;10.60;10.10;;;;;;;5.55;100.00;92171.91;5049253;28;20225;-66
2022/11/24 09:43:26;;;;;;;11.47;10.87;;;;;;;5.52;100.00;92176.81;5049430;28;20221;-66
2022/11/24 09:46:10;;;;;;;10.63;10.03;;;;;;;5.66;99.97;92175.28;5048066;28;20229;-67
2022/11/24 09:48:40;;;;;;;11.00;10.40;;;;;;;5.57;98.44;92177.59;5049150;28;20194;-65
2022/11/24 09:51:10;;;;;;;9.70;9.20;;;;;;;5.53;98.49;92183.53;5053292;28;20290;-65
2022/11/24 09:54:00;;;;;;;11.60;11.00;;;;;;;5.63;97.88;92186.16;5059810;28;20216;-66
2022/11/24 09:56:35;;;;;;;10.13;9.73;;;;;;;5.66;98.23;92183.81;5048139;28;20210;-66
2022/11/24 09:59:19;;;;;;;9.27;8.97;;;;;;;5.59;95.53;92165.16;5049235;28;20190;-66
2022/11/24 10:01:46;;;;;;;9.57;9.17;;;;;;;5.61;95.37;92189.00;5045546;28;20944;-66
2022/11/24 10:04:38;;;;;;;8.90;8.50;;;;;;;5.50;96.48;92186.66;5048970;28;20196;-67
2022/11/24 10:07:10;;;;;;;9.37;8.97;;;;;;;5.82;95.69;92184.63;5048244;28;20248;-67
2022/11/24 10:10:10;;;;;;;10.30;9.87;;;;;;;5.70;96.95;92189.25;5048520;28;20182;-68
2022/11/24 10:12:50;;;;;;;10.17;9.77;;;;;;;5.85;95.13;92199.66;5046819;28;20194;-67
2022/11/24 10:15:54;;;;;;;9.90;9.50;;;;;;;5.61;95.42;92198.56;5047107;28;20225;-70
2022/11/24 10:18:49;;;;;;;9.90;9.50;;;;;;;5.79;94.98;92195.47;4989542;28;20195;-65
2022/11/24 10:21:51;;;;;;;10.10;9.70;;;;;;;5.53;95.76;92196.47;5028488;28;20229;-64
2022/11/24 10:24:25;;;;;;;10.57;10.17;;;;;;;5.13;97.51;92196.44;5048106;28;20174;-68
2022/11/24 10:27:02;;;;;;;10.57;10.07;;;;;;;5.01;97.10;92186.31;5049274;28;20286;-68
2022/11/24 10:29:41;;;;;;;10.97;10.47;;;;;;;5.18;97.10;92196.44;5048255;28;20184;-69
2022/11/24 10:32:18;;;;;;;10.83;10.33;;;;;;;4.91;96.82;92174.13;5047746;28;20198;-66
2022/11/24 10:34:47;;;;;;;10.43;9.93;;;;;;;5.52;98.00;92200.91;5048499;28;20201;-70
2022/11/24 10:37:35;;;;;;;9.90;9.50;;;;;;;5.24;96.29;92200.59;5049665;28;20740;-69
2022/11/24 10:40:16;;;;;;;10.37;9.87;;;;;;;5.00;96.92;92189.91;5050500;28;20221;-69
2022/11/24 10:42:42;;;;;;;10.83;10.37;;;;;;;4.99;97.14;92185.78;5046084;28;20209;-68
2022/11/24 10:45:21;;;;;;;10.37;9.97;;;;;;;5.25;96.28;92195.16;5048097;28;20305;-69
2022/11/24 10:47:48;;;;;;;11.00;10.50;;;;;;;5.03;96.14;92171.31;5054911;28;20202;-69
2022/11/24 10:50:36;;;;;;;8.97;8.67;;;;;;;5.27;95.29;92192.31;5049618;28;20218;-68
2022/11/24 10:53:14;;;;;;;9.50;9.20;;;;;;;5.45;93.92;92187.41;5049412;28;20185;-70
2022/11/24 10:55:55;;;;;;;11.37;10.67;;;;;;;5.68;93.60;92188.75;5052957;28;20229;-67
2022/11/24 10:58:34;;;;;;;10.50;10.00;;;;;;;5.39;93.86;92196.22;5045492;28;20178;-70
2022/11/24 11:01:18;;;;;;;11.40;9.70;;;;;;;5.64;93.87;92195.47;5046786;28;20213;-67
2022/11/24 11:03:57;;;;;;;10.83;10.20;;;;;;;5.37;96.03;92190.50;5049015;28;20194;-68
2022/11/24 11:06:27;;;;;;;11.07;10.27;;;;;;;5.91;93.79;92193.44;5047758;28;20222;-67
2022/11/24 11:09:04;;;;;;;10.23;9.80;;;;;;;5.71;92.42;92196.00;5054842;28;20220;-67
2022/11/24 11:11:30;;;;;;;11.30;10.70;;;;;;;5.72;93.31;92202.72;5047205;28;20289;-68
2022/11/24 11:13:57;;;;;;;10.23;9.80;;;;;;;5.97;92.92;92200.16;5054172;28;20194;-67
2022/11/24 11:16:31;;;;;;;11.50;10.90;;;;;;;6.07;90.74;92203.50;5054286;28;20281;-67
2022/11/24 11:18:56;;;;;;;9.97;9.50;;;;;;;6.06;94.14;92196.00;5053055;28;20198;-68
2022/11/24 11:21:27;;;;;;;12.80;11.90;;;;;;;5.63;97.40;92199.88;5055750;28;20224;-68
2022/11/24 11:23:53;;;;;;;12.43;11.63;;;;;;;5.06;94.54;92195.91;5052320;28;20198;-69